createdAt,value
2019-03-16T04:27:15.650Z,6.33
2019-03-16T04:37:06.567Z,7.17
2019-03-16T04:47:08.614Z,6.07
2019-03-16T04:57:09.897Z,6.23
2019-03-16T05:07:11.184Z,6.23
2019-03-16T05:37:27.344Z,5.40
2019-03-16T05:47:29.384Z,5.63
2019-03-16T05:57:30.662Z,5.77
2019-03-16T06:07:34.006Z,5.30
2019-03-16T06:17:35.301Z,7.43
2019-03-16T06:27:37.844Z,7.47
2019-03-16T06:37:39.141Z,5.50
2019-03-16T06:47:40.443Z,5.33
2019-03-16T07:07:49.053Z,8.43
2019-03-16T07:17:50.359Z,7.63
2019-03-16T07:27:51.638Z,6.40
2019-03-16T07:37:53.713Z,6.27
2019-03-16T07:48:00.283Z,4.57
2019-03-16T07:58:01.563Z,4.17
2019-03-16T08:08:03.623Z,3.73
2019-03-16T08:18:07.624Z,3.43
2019-03-16T08:28:06.214Z,4.70
2019-03-16T08:38:07.540Z,4.97
2019-03-16T08:48:21.940Z,3.27
2019-03-16T09:08:16.688Z,3.20
2019-03-16T09:18:17.983Z,3.50
2019-03-16T09:28:19.310Z,3.00
2019-03-16T09:48:27.179Z,4.80
2019-03-16T09:58:31.418Z,2.50
2019-03-16T10:08:31.604Z,2.33
2019-03-16T10:18:32.874Z,2.43
2019-03-16T10:28:43.285Z,2.70
2019-03-16T10:38:38.198Z,2.70
2019-03-16T11:19:01.884Z,2.50
2019-03-16T11:29:08.878Z,2.47
2019-03-16T11:39:04.487Z,2.60
2019-03-16T11:49:06.505Z,2.83
2019-03-16T11:59:20.697Z,2.70
2019-03-16T12:09:09.845Z,2.63
2019-03-16T12:19:11.307Z,2.80
2019-03-16T12:39:21.678Z,2.97
2019-03-16T12:49:23.750Z,3.27
2019-03-16T12:59:25.100Z,3.70
2019-03-16T13:09:26.493Z,3.67
2019-03-16T13:19:28.542Z,3.20
2019-03-16T13:29:29.813Z,3.80
2019-03-16T13:59:46.279Z,3.20
2019-03-16T14:09:47.559Z,3.40
2019-03-16T14:19:48.847Z,3.27
2019-03-16T14:29:50.903Z,3.57
2019-03-16T14:39:52.222Z,3.40
2019-03-16T14:49:53.561Z,3.03
2019-03-16T14:59:54.837Z,3.20
2019-03-16T15:09:56.123Z,4.93
2019-03-16T15:19:57.430Z,4.30
2019-03-16T15:29:58.673Z,4.77
2019-03-16T15:40:00.704Z,3.97
2019-03-16T15:50:01.961Z,4.20
2019-03-16T16:00:04.025Z,3.40
2019-03-16T16:10:05.373Z,3.80
2019-03-16T16:20:06.636Z,4.07
2019-03-16T16:30:07.912Z,4.53
2019-03-16T16:40:09.202Z,3.80
2019-03-16T16:50:10.489Z,3.80
2019-03-16T17:00:11.771Z,4.90
2019-03-16T17:10:17.594Z,3.97
2019-03-16T17:20:18.897Z,3.93
2019-03-16T17:30:20.162Z,6.00
2019-03-16T17:40:22.259Z,6.73
2019-03-16T17:50:23.519Z,6.87
2019-03-16T18:00:24.797Z,7.50
2019-03-16T18:10:26.088Z,9.20
2019-03-16T18:20:27.360Z,9.50
2019-03-16T18:30:29.407Z,10.90
2019-03-16T18:40:33.813Z,9.90
2019-03-16T18:50:35.126Z,9.70
2019-03-16T19:00:36.442Z,8.47
2019-03-16T19:10:37.711Z,8.70
2019-03-16T19:20:39.054Z,9.23
2019-03-16T19:30:40.313Z,7.93
2019-03-16T19:40:45.921Z,7.57
2019-03-16T19:50:47.953Z,7.57
2019-03-16T20:00:49.228Z,7.10
2019-03-16T20:10:51.270Z,11.63
2019-03-16T20:20:52.620Z,11.07
2019-03-16T20:30:53.918Z,9.17
2019-03-16T20:40:55.207Z,9.93
2019-03-16T20:50:56.637Z,11.00
2019-03-16T21:00:58.706Z,10.00
2019-03-16T21:11:00.005Z,8.90
2019-03-16T21:21:01.282Z,9.20
2019-03-16T21:31:02.563Z,9.93
2019-03-16T21:41:03.820Z,11.53
2019-03-16T21:51:06.056Z,10.13
2019-03-16T22:01:07.326Z,8.17
2019-03-16T22:11:09.375Z,8.73
2019-03-16T22:21:10.647Z,8.87
2019-03-16T22:31:14.795Z,8.83
2019-03-16T22:41:16.085Z,8.77
2019-03-16T22:51:17.364Z,10.20
2019-03-16T23:01:18.659Z,9.80
2019-03-16T23:11:19.937Z,10.57
2019-03-16T23:31:33.745Z,10.50
2019-03-16T23:41:35.761Z,10.13
2019-03-16T23:51:37.787Z,10.83
